Melissa Lynn — WDI5512 — position and weather

sailwx.info

Track history (hours):
 
Tides and Currents Weather Stations Pressure Air Temp Water Temp Dewpoint Dewpoint Depression Visibility Wind Speed Wind Dir Waves Ship Positions

Melissa Lynn

Owner: Titan Marine Towing LLC, Corpus Christi, TX. More information available from US FCC via Universal Licensing System and Coast Guard Vessel Documentation Center.

Last reported at 2018-Jun-04 12:47 UTC. Time now 2018-Jun-21 11:56 UTC.
Position N 28°54' W 095°22'.
Warning: this ship's position is 16 days out of date.

Length 24 m.

Type: Tow > 200 m length. MMSI: 367709340.

Date/timePositionNaut miles runAvg speedWind from/ knotsBaromVisibWave heightAir tempDewpointWater temp
2018-Jun-04 12:47N 28°54' W 095°22'0 0.0
2018-Jun-04 12:29N 28°54' W 095°22'2 1.4
2018-Jun-04 11:11N 28°55' W 095°21'1 4.2
2018-Jun-04 11:00N 28°56' W 095°20'3 4.5
2018-Jun-04 10:25N 28°57' W 095°18'2 4.1
2018-Jun-04 10:00N 28°59' W 095°16'2 4.4
2018-Jun-04 09:31N 29°00' W 095°15'2 4.4
2018-Jun-04 09:00N 29°02' W 095°14'2 4.2
2018-Jun-04 08:30N 29°04' W 095°13'2 3.4
2018-Jun-04 08:00N 29°06' W 095°12'2 4.0
2018-Jun-04 07:30N 29°08' W 095°11'1 2.9
2018-Jun-04 07:00N 29°09' W 095°10'2 3.5
2018-Jun-04 06:30N 29°10' W 095°08'2 4.2
2018-Jun-04 06:01N 29°11' W 095°06'2 4.3
2018-Jun-04 05:30N 29°12' W 095°04'2 4.1
2018-Jun-04 05:00N 29°13' W 095°02'2 4.1
2018-Jun-04 04:30N 29°15' W 095°01'2 4.2
2018-Jun-04 04:00N 29°16' W 094°59'2 3.9
2018-Jun-04 03:30N 29°17' W 094°57'2 3.7
2018-Jun-04 03:01N 29°17' W 094°55'2 3.5
2018-Jun-04 02:31N 29°18' W 094°53'2 4.2
2018-Jun-04 02:01N 29°19' W 094°51'2 4.5
2018-Jun-04 01:30N 29°21' W 094°49'2 4.7
2018-Jun-04 01:00N 29°22' W 094°47'2 4.9
2018-Jun-04 00:30N 29°24' W 094°45'2 4.2
2018-Jun-03 23:58N 29°25' W 094°43'0 0.3
2018-Jun-03 23:17N 29°26' W 094°43'0 0.1
2018-Jun-03 23:00N 29°25' W 094°43'0 0.1
2018-Jun-03 20:10N 29°25' W 094°43'3 2.0
2018-Jun-03 18:54N 29°24' W 094°46'2 4.7
2018-Jun-03 18:27N 29°22' W 094°47'11 5.1
2018-Jun-03 16:21N 29°32' W 094°53'2 5.3
2018-Jun-03 15:57N 29°33' W 094°55'3 5.9
2018-Jun-03 15:23N 29°36' W 094°57'2 5.9
2018-Jun-03 14:58N 29°38' W 094°58'3 5.9
2018-Jun-03 14:27N 29°41' W 094°59'3 5.3
2018-Jun-03 13:54N 29°43' W 095°01'3 5.7
2018-Jun-03 13:26N 29°45' W 095°04'2 3.4
2018-Jun-03 12:55N 29°46' W 095°05'1 0.4
2018-Jun-03 11:20N 29°45' W 095°06'7 6.2
2018-Jun-03 10:16N 29°42' W 094°59'2 6.8
2018-Jun-03 10:01N 29°40' W 094°58'4 7.3
2018-Jun-03 09:28N 29°36' W 094°57'3 6.5
2018-Jun-03 08:59N 29°34' W 094°55'5 6.7
2018-Jun-03 08:13N 29°29' W 094°52'4 7.1
2018-Jun-03 07:43N 29°26' W 094°50'1 6.6
2018-Jun-03 07:30N 29°25' W 094°50'3 6.1
2018-Jun-03 07:00N 29°22' W 094°48'3 5.8
2018-Jun-03 06:30N 29°20' W 094°51'4 7.7
2018-Jun-03 06:01N 29°17' W 094°54'4 8.1
2018-Jun-03 05:29N 29°17' W 094°58'4 7.6
2018-Jun-03 05:01N 29°14' W 095°01'3 6.7
2018-Jun-03 04:30N 29°12' W 095°04'2 4.1
2018-Jun-03 04:01N 29°11' W 095°06'4 7.3
2018-Jun-03 03:31N 29°09' W 095°09'3 6.9
2018-Jun-03 03:00N 29°06' W 095°12'3 6.6
2018-Jun-03 02:31N 29°03' W 095°13'3 6.6
2018-Jun-03 02:01N 29°00' W 095°15'3 6.5
2018-Jun-03 01:29N 28°57' W 095°18'5 6.1
2018-Jun-03 00:43N 28°55' W 095°22'0 0.0
2018-Jun-03 00:27N 28°55' W 095°22'2 3.5
2018-Jun-02 23:52N 28°54' W 095°24'  
Track history (hours):
 
Tides and Currents Weather Stations Pressure Air Temp Water Temp Dewpoint Dewpoint Depression Visibility Wind Speed Wind Dir Waves Ship Positions

Melissa Lynn

Owner: Titan Marine Towing LLC, Corpus Christi, TX. More information available from US FCC via Universal Licensing System and Coast Guard Vessel Documentation Center.

Last reported at 2018-Jun-04 12:47 UTC. Time now 2018-Jun-21 11:56 UTC.
Position N 28°54' W 095°22'.
Warning: this ship's position is 16 days out of date.

Length 24 m.

Type: Tow > 200 m length. MMSI: 367709340.

Date/timePositionNaut miles runAvg speedWind from/ knotsBaromVisibWave heightAir tempDewpointWater temp
2018-Jun-04 12:47N 28°54' W 095°22'0 0.0
2018-Jun-04 12:29N 28°54' W 095°22'2 1.4
2018-Jun-04 11:11N 28°55' W 095°21'1 4.2
2018-Jun-04 11:00N 28°56' W 095°20'3 4.5
2018-Jun-04 10:25N 28°57' W 095°18'2 4.1
2018-Jun-04 10:00N 28°59' W 095°16'2 4.4
2018-Jun-04 09:31N 29°00' W 095°15'2 4.4
2018-Jun-04 09:00N 29°02' W 095°14'2 4.2
2018-Jun-04 08:30N 29°04' W 095°13'2 3.4
2018-Jun-04 08:00N 29°06' W 095°12'2 4.0
2018-Jun-04 07:30N 29°08' W 095°11'1 2.9
2018-Jun-04 07:00N 29°09' W 095°10'2 3.5
2018-Jun-04 06:30N 29°10' W 095°08'2 4.2
2018-Jun-04 06:01N 29°11' W 095°06'2 4.3
2018-Jun-04 05:30N 29°12' W 095°04'2 4.1
2018-Jun-04 05:00N 29°13' W 095°02'2 4.1
2018-Jun-04 04:30N 29°15' W 095°01'2 4.2
2018-Jun-04 04:00N 29°16' W 094°59'2 3.9
2018-Jun-04 03:30N 29°17' W 094°57'2 3.7
2018-Jun-04 03:01N 29°17' W 094°55'2 3.5
2018-Jun-04 02:31N 29°18' W 094°53'2 4.2
2018-Jun-04 02:01N 29°19' W 094°51'2 4.5
2018-Jun-04 01:30N 29°21' W 094°49'2 4.7
2018-Jun-04 01:00N 29°22' W 094°47'2 4.9
2018-Jun-04 00:30N 29°24' W 094°45'2 4.2
2018-Jun-03 23:58N 29°25' W 094°43'0 0.3
2018-Jun-03 23:17N 29°26' W 094°43'0 0.1
2018-Jun-03 23:00N 29°25' W 094°43'0 0.1
2018-Jun-03 20:10N 29°25' W 094°43'3 2.0
2018-Jun-03 18:54N 29°24' W 094°46'2 4.7
2018-Jun-03 18:27N 29°22' W 094°47'11 5.1
2018-Jun-03 16:21N 29°32' W 094°53'2 5.3
2018-Jun-03 15:57N 29°33' W 094°55'3 5.9
2018-Jun-03 15:23N 29°36' W 094°57'2 5.9
2018-Jun-03 14:58N 29°38' W 094°58'3 5.9
2018-Jun-03 14:27N 29°41' W 094°59'3 5.3
2018-Jun-03 13:54N 29°43' W 095°01'3 5.7
2018-Jun-03 13:26N 29°45' W 095°04'2 3.4
2018-Jun-03 12:55N 29°46' W 095°05'1 0.4
2018-Jun-03 11:20N 29°45' W 095°06'7 6.2
2018-Jun-03 10:16N 29°42' W 094°59'2 6.8
2018-Jun-03 10:01N 29°40' W 094°58'4 7.3
2018-Jun-03 09:28N 29°36' W 094°57'3 6.5
2018-Jun-03 08:59N 29°34' W 094°55'5 6.7
2018-Jun-03 08:13N 29°29' W 094°52'4 7.1
2018-Jun-03 07:43N 29°26' W 094°50'1 6.6
2018-Jun-03 07:30N 29°25' W 094°50'3 6.1
2018-Jun-03 07:00N 29°22' W 094°48'3 5.8
2018-Jun-03 06:30N 29°20' W 094°51'4 7.7
2018-Jun-03 06:01N 29°17' W 094°54'4 8.1
2018-Jun-03 05:29N 29°17' W 094°58'4 7.6
2018-Jun-03 05:01N 29°14' W 095°01'3 6.7
2018-Jun-03 04:30N 29°12' W 095°04'2 4.1
2018-Jun-03 04:01N 29°11' W 095°06'4 7.3
2018-Jun-03 03:31N 29°09' W 095°09'3 6.9
2018-Jun-03 03:00N 29°06' W 095°12'3 6.6
2018-Jun-03 02:31N 29°03' W 095°13'3 6.6
2018-Jun-03 02:01N 29°00' W 095°15'3 6.5
2018-Jun-03 01:29N 28°57' W 095°18'5 6.1
2018-Jun-03 00:43N 28°55' W 095°22'0 0.0
2018-Jun-03 00:27N 28°55' W 095°22'2 3.5
2018-Jun-02 23:52N 28°54' W 095°24'  

Dump ship's entire track history